sensor_id;sensor_type;location;lat;lon;timestamp;P1;durP1;ratioP1;P2;durP2;ratioP2
16320;SDS011;8269;50.990;4.494;2023-03-05T00:01:23;8.07;;;3.40;;
16320;SDS011;8269;50.990;4.494;2023-03-05T00:03:50;4.97;;;3.03;;
16320;SDS011;8269;50.990;4.494;2023-03-05T00:06:17;7.93;;;3.90;;
16320;SDS011;8269;50.990;4.494;2023-03-05T00:08:43;7.33;;;3.40;;
16320;SDS011;8269;50.990;4.494;2023-03-05T00:11:10;7.97;;;4.00;;
16320;SDS011;8269;50.990;4.494;2023-03-05T00:13:37;9.23;;;3.60;;
16320;SDS011;8269;50.990;4.494;2023-03-05T00:16:04;8.40;;;3.90;;
16320;SDS011;8269;50.990;4.494;2023-03-05T00:18:30;6.27;;;3.40;;
16320;SDS011;8269;50.990;4.494;2023-03-05T00:20:57;8.17;;;3.87;;
16320;SDS011;8269;50.990;4.494;2023-03-05T00:23:23;10.23;;;4.03;;
16320;SDS011;8269;50.990;4.494;2023-03-05T00:25:49;6.70;;;3.80;;
16320;SDS011;8269;50.990;4.494;2023-03-05T00:28:15;8.17;;;3.40;;
16320;SDS011;8269;50.990;4.494;2023-03-05T00:30:41;7.70;;;3.70;;
16320;SDS011;8269;50.990;4.494;2023-03-05T00:33:07;8.87;;;3.77;;
16320;SDS011;8269;50.990;4.494;2023-03-05T00:35:43;6.07;;;3.17;;
16320;SDS011;8269;50.990;4.494;2023-03-05T00:38:09;6.60;;;3.40;;
16320;SDS011;8269;50.990;4.494;2023-03-05T00:40:36;10.40;;;3.70;;
16320;SDS011;8269;50.990;4.494;2023-03-05T00:43:03;8.50;;;3.50;;
16320;SDS011;8269;50.990;4.494;2023-03-05T00:45:29;8.17;;;3.40;;
16320;SDS011;8269;50.990;4.494;2023-03-05T00:47:55;7.40;;;3.50;;
16320;SDS011;8269;50.990;4.494;2023-03-05T00:50:21;7.93;;;3.47;;
16320;SDS011;8269;50.990;4.494;2023-03-05T00:52:47;7.00;;;3.63;;
16320;SDS011;8269;50.990;4.494;2023-03-05T00:55:13;11.17;;;4.20;;
16320;SDS011;8269;50.990;4.494;2023-03-05T00:57:40;8.23;;;4.00;;
16320;SDS011;8269;50.990;4.494;2023-03-05T01:00:06;8.17;;;3.80;;
16320;SDS011;8269;50.990;4.494;2023-03-05T01:02:33;7.90;;;3.83;;
16320;SDS011;8269;50.990;4.494;2023-03-05T01:04:59;7.20;;;3.43;;
16320;SDS011;8269;50.990;4.494;2023-03-05T01:07:25;8.33;;;3.83;;
16320;SDS011;8269;50.990;4.494;2023-03-05T01:09:51;7.60;;;3.97;;
16320;SDS011;8269;50.990;4.494;2023-03-05T01:12:17;6.90;;;3.60;;
16320;SDS011;8269;50.990;4.494;2023-03-05T01:14:43;9.07;;;3.70;;
16320;SDS011;8269;50.990;4.494;2023-03-05T01:17:09;8.80;;;3.80;;
16320;SDS011;8269;50.990;4.494;2023-03-05T01:19:35;12.30;;;4.50;;
16320;SDS011;8269;50.990;4.494;2023-03-05T01:22:01;10.23;;;4.53;;
16320;SDS011;8269;50.990;4.494;2023-03-05T01:24:29;8.23;;;4.40;;
16320;SDS011;8269;50.990;4.494;2023-03-05T01:26:55;8.20;;;4.40;;
16320;SDS011;8269;50.990;4.494;2023-03-05T01:29:21;9.10;;;4.43;;
16320;SDS011;8269;50.990;4.494;2023-03-05T01:31:47;7.53;;;4.20;;
16320;SDS011;8269;50.990;4.494;2023-03-05T01:34:13;9.80;;;4.60;;
16320;SDS011;8269;50.990;4.494;2023-03-05T01:36:42;8.07;;;4.40;;
16320;SDS011;8269;50.990;4.494;2023-03-05T01:39:08;6.60;;;4.10;;
16320;SDS011;8269;50.990;4.494;2023-03-05T01:41:35;8.33;;;4.00;;
16320;SDS011;8269;50.990;4.494;2023-03-05T01:44:01;6.97;;;4.43;;
16320;SDS011;8269;50.990;4.494;2023-03-05T01:49:15;7.63;;;4.53;;
16320;SDS011;8269;50.990;4.494;2023-03-05T01:52:01;9.33;;;4.30;;
16320;SDS011;8269;50.990;4.494;2023-03-05T01:54:28;6.93;;;4.37;;
16320;SDS011;8269;50.990;4.494;2023-03-05T01:56:55;8.20;;;4.43;;
16320;SDS011;8269;50.990;4.494;2023-03-05T01:59:23;7.97;;;4.57;;
16320;SDS011;8269;50.990;4.494;2023-03-05T02:01:50;9.03;;;4.33;;
16320;SDS011;8269;50.990;4.494;2023-03-05T02:04:18;9.53;;;4.57;;
16320;SDS011;8269;50.990;4.494;2023-03-05T02:06:44;8.43;;;4.47;;
16320;SDS011;8269;50.990;4.494;2023-03-05T02:09:12;12.60;;;5.00;;
16320;SDS011;8269;50.990;4.494;2023-03-05T02:11:38;9.20;;;4.40;;
16320;SDS011;8269;50.990;4.494;2023-03-05T02:14:04;8.00;;;4.30;;
16320;SDS011;8269;50.990;4.494;2023-03-05T02:16:31;11.03;;;4.77;;
16320;SDS011;8269;50.990;4.494;2023-03-05T02:19:05;10.23;;;4.80;;
16320;SDS011;8269;50.990;4.494;2023-03-05T02:21:52;10.23;;;5.00;;
16320;SDS011;8269;50.990;4.494;2023-03-05T02:24:18;8.50;;;4.60;;
16320;SDS011;8269;50.990;4.494;2023-03-05T02:26:56;11.30;;;5.50;;
16320;SDS011;8269;50.990;4.494;2023-03-05T02:29:22;8.10;;;4.67;;
16320;SDS011;8269;50.990;4.494;2023-03-05T02:31:49;8.83;;;4.23;;
16320;SDS011;8269;50.990;4.494;2023-03-05T02:34:15;9.93;;;4.47;;
16320;SDS011;8269;50.990;4.494;2023-03-05T02:36:41;6.63;;;4.27;;
16320;SDS011;8269;50.990;4.494;2023-03-05T02:39:07;8.50;;;4.33;;
16320;SDS011;8269;50.990;4.494;2023-03-05T02:41:34;9.97;;;5.30;;
16320;SDS011;8269;50.990;4.494;2023-03-05T02:44:00;8.53;;;4.90;;
16320;SDS011;8269;50.990;4.494;2023-03-05T02:46:26;9.57;;;4.83;;
16320;SDS011;8269;50.990;4.494;2023-03-05T02:48:52;11.10;;;4.97;;
16320;SDS011;8269;50.990;4.494;2023-03-05T02:51:18;10.57;;;4.90;;
16320;SDS011;8269;50.990;4.494;2023-03-05T02:53:44;11.90;;;5.57;;
16320;SDS011;8269;50.990;4.494;2023-03-05T02:56:10;9.03;;;4.63;;
16320;SDS011;8269;50.990;4.494;2023-03-05T02:58:37;8.07;;;5.00;;
16320;SDS011;8269;50.990;4.494;2023-03-05T03:01:03;9.57;;;5.03;;
16320;SDS011;8269;50.990;4.494;2023-03-05T03:03:29;12.30;;;5.47;;
16320;SDS011;8269;50.990;4.494;2023-03-05T03:05:55;10.00;;;5.20;;
16320;SDS011;8269;50.990;4.494;2023-03-05T03:08:21;9.10;;;4.90;;
16320;SDS011;8269;50.990;4.494;2023-03-05T03:10:47;9.00;;;5.20;;
16320;SDS011;8269;50.990;4.494;2023-03-05T03:13:14;9.47;;;5.30;;
16320;SDS011;8269;50.990;4.494;2023-03-05T03:15:40;9.10;;;4.90;;
16320;SDS011;8269;50.990;4.494;2023-03-05T03:18:06;10.13;;;5.13;;
16320;SDS011;8269;50.990;4.494;2023-03-05T03:20:32;9.37;;;5.40;;
16320;SDS011;8269;50.990;4.494;2023-03-05T03:22:59;9.90;;;5.47;;
16320;SDS011;8269;50.990;4.494;2023-03-05T03:25:26;9.70;;;5.23;;
16320;SDS011;8269;50.990;4.494;2023-03-05T03:27:52;8.03;;;4.90;;
16320;SDS011;8269;50.990;4.494;2023-03-05T03:30:18;10.37;;;5.53;;
16320;SDS011;8269;50.990;4.494;2023-03-05T03:32:44;9.97;;;5.13;;
16320;SDS011;8269;50.990;4.494;2023-03-05T03:35:10;8.00;;;5.07;;
16320;SDS011;8269;50.990;4.494;2023-03-05T03:37:36;9.03;;;5.40;;
16320;SDS011;8269;50.990;4.494;2023-03-05T03:40:03;7.87;;;4.40;;
16320;SDS011;8269;50.990;4.494;2023-03-05T03:42:29;8.93;;;5.23;;
16320;SDS011;8269;50.990;4.494;2023-03-05T03:44:55;7.70;;;5.00;;
16320;SDS011;8269;50.990;4.494;2023-03-05T03:47:21;8.03;;;5.30;;
16320;SDS011;8269;50.990;4.494;2023-03-05T03:49:47;8.93;;;5.13;;
16320;SDS011;8269;50.990;4.494;2023-03-05T03:52:13;10.40;;;5.23;;
16320;SDS011;8269;50.990;4.494;2023-03-05T03:54:39;11.90;;;5.67;;
16320;SDS011;8269;50.990;4.494;2023-03-05T03:57:06;10.27;;;5.80;;
16320;SDS011;8269;50.990;4.494;2023-03-05T03:59:32;9.50;;;5.30;;
16320;SDS011;8269;50.990;4.494;2023-03-05T04:01:58;9.43;;;5.67;;
16320;SDS011;8269;50.990;4.494;2023-03-05T04:04:24;10.63;;;6.00;;
16320;SDS011;8269;50.990;4.494;2023-03-05T04:06:50;10.60;;;5.83;;
16320;SDS011;8269;50.990;4.494;2023-03-05T04:09:16;11.57;;;6.03;;
16320;SDS011;8269;50.990;4.494;2023-03-05T04:11:43;9.43;;;5.47;;
16320;SDS011;8269;50.990;4.494;2023-03-05T04:14:09;11.93;;;5.57;;
16320;SDS011;8269;50.990;4.494;2023-03-05T04:16:35;10.23;;;6.20;;
16320;SDS011;8269;50.990;4.494;2023-03-05T04:19:01;12.43;;;5.77;;
16320;SDS011;8269;50.990;4.494;2023-03-05T04:21:27;12.67;;;6.37;;
16320;SDS011;8269;50.990;4.494;2023-03-05T04:23:54;11.73;;;5.53;;
16320;SDS011;8269;50.990;4.494;2023-03-05T04:26:20;12.30;;;6.07;;
16320;SDS011;8269;50.990;4.494;2023-03-05T04:28:46;10.97;;;6.03;;
16320;SDS011;8269;50.990;4.494;2023-03-05T04:31:13;10.80;;;6.00;;
16320;SDS011;8269;50.990;4.494;2023-03-05T04:33:39;10.57;;;5.90;;
16320;SDS011;8269;50.990;4.494;2023-03-05T04:36:05;9.60;;;5.73;;
16320;SDS011;8269;50.990;4.494;2023-03-05T04:38:31;11.27;;;5.73;;
16320;SDS011;8269;50.990;4.494;2023-03-05T04:40:57;11.00;;;5.90;;
16320;SDS011;8269;50.990;4.494;2023-03-05T04:43:23;11.33;;;5.77;;
16320;SDS011;8269;50.990;4.494;2023-03-05T04:45:49;10.43;;;5.70;;
16320;SDS011;8269;50.990;4.494;2023-03-05T04:48:15;11.07;;;5.83;;
16320;SDS011;8269;50.990;4.494;2023-03-05T04:50:42;10.07;;;5.63;;
16320;SDS011;8269;50.990;4.494;2023-03-05T04:53:08;11.23;;;5.97;;
16320;SDS011;8269;50.990;4.494;2023-03-05T04:55:34;11.43;;;6.27;;
16320;SDS011;8269;50.990;4.494;2023-03-05T04:58:00;8.53;;;6.00;;
16320;SDS011;8269;50.990;4.494;2023-03-05T05:00:27;12.13;;;7.30;;
16320;SDS011;8269;50.990;4.494;2023-03-05T05:02:53;11.50;;;5.77;;
16320;SDS011;8269;50.990;4.494;2023-03-05T05:05:20;9.83;;;6.30;;
16320;SDS011;8269;50.990;4.494;2023-03-05T05:07:47;12.93;;;6.47;;
16320;SDS011;8269;50.990;4.494;2023-03-05T05:10:13;12.20;;;6.57;;
16320;SDS011;8269;50.990;4.494;2023-03-05T05:12:39;11.80;;;6.73;;
16320;SDS011;8269;50.990;4.494;2023-03-05T05:15:07;9.90;;;6.17;;
16320;SDS011;8269;50.990;4.494;2023-03-05T05:17:33;10.17;;;6.63;;
16320;SDS011;8269;50.990;4.494;2023-03-05T05:20:00;11.60;;;6.77;;
16320;SDS011;8269;50.990;4.494;2023-03-05T05:22:27;12.17;;;6.87;;
16320;SDS011;8269;50.990;4.494;2023-03-05T05:24:54;13.50;;;7.00;;
16320;SDS011;8269;50.990;4.494;2023-03-05T05:27:20;11.93;;;7.60;;
16320;SDS011;8269;50.990;4.494;2023-03-05T05:29:46;11.40;;;7.43;;
16320;SDS011;8269;50.990;4.494;2023-03-05T05:32:17;14.37;;;8.07;;
16320;SDS011;8269;50.990;4.494;2023-03-05T05:34:43;12.63;;;8.20;;
16320;SDS011;8269;50.990;4.494;2023-03-05T05:37:09;12.93;;;8.00;;
16320;SDS011;8269;50.990;4.494;2023-03-05T05:39:35;12.53;;;7.97;;
16320;SDS011;8269;50.990;4.494;2023-03-05T05:42:01;13.67;;;8.63;;
16320;SDS011;8269;50.990;4.494;2023-03-05T05:44:27;19.03;;;8.70;;
16320;SDS011;8269;50.990;4.494;2023-03-05T05:46:53;13.27;;;8.07;;
16320;SDS011;8269;50.990;4.494;2023-03-05T05:49:19;15.07;;;9.00;;
16320;SDS011;8269;50.990;4.494;2023-03-05T05:51:45;14.43;;;9.27;;
16320;SDS011;8269;50.990;4.494;2023-03-05T05:54:12;13.70;;;8.97;;
16320;SDS011;8269;50.990;4.494;2023-03-05T05:56:38;16.73;;;8.90;;
16320;SDS011;8269;50.990;4.494;2023-03-05T05:59:04;13.07;;;8.70;;
16320;SDS011;8269;50.990;4.494;2023-03-05T06:01:31;12.63;;;9.13;;
16320;SDS011;8269;50.990;4.494;2023-03-05T06:03:57;14.17;;;9.30;;
16320;SDS011;8269;50.990;4.494;2023-03-05T06:06:24;14.33;;;9.90;;
16320;SDS011;8269;50.990;4.494;2023-03-05T06:08:50;13.33;;;9.30;;
16320;SDS011;8269;50.990;4.494;2023-03-05T06:11:17;15.27;;;10.67;;
16320;SDS011;8269;50.990;4.494;2023-03-05T06:13:43;15.93;;;10.10;;
16320;SDS011;8269;50.990;4.494;2023-03-05T06:16:13;18.13;;;10.80;;
16320;SDS011;8269;50.990;4.494;2023-03-05T06:18:40;14.80;;;10.43;;
16320;SDS011;8269;50.990;4.494;2023-03-05T06:21:08;16.77;;;11.33;;
16320;SDS011;8269;50.990;4.494;2023-03-05T06:23:34;16.30;;;11.50;;
16320;SDS011;8269;50.990;4.494;2023-03-05T06:26:01;15.33;;;11.27;;
16320;SDS011;8269;50.990;4.494;2023-03-05T06:28:27;15.80;;;10.10;;
16320;SDS011;8269;50.990;4.494;2023-03-05T06:31:00;16.30;;;11.43;;
16320;SDS011;8269;50.990;4.494;2023-03-05T06:33:27;17.27;;;10.80;;
16320;SDS011;8269;50.990;4.494;2023-03-05T06:35:53;17.07;;;11.50;;
16320;SDS011;8269;50.990;4.494;2023-03-05T06:38:19;14.17;;;10.47;;
16320;SDS011;8269;50.990;4.494;2023-03-05T06:40:45;16.50;;;10.60;;
16320;SDS011;8269;50.990;4.494;2023-03-05T06:43:11;18.63;;;13.55;;
16320;SDS011;8269;50.990;4.494;2023-03-05T06:45:37;19.38;;;13.48;;
16320;SDS011;8269;50.990;4.494;2023-03-05T06:48:03;16.13;;;11.30;;
16320;SDS011;8269;50.990;4.494;2023-03-05T06:50:29;15.47;;;9.77;;
16320;SDS011;8269;50.990;4.494;2023-03-05T06:52:55;14.33;;;10.23;;
16320;SDS011;8269;50.990;4.494;2023-03-05T06:55:21;16.23;;;10.00;;
16320;SDS011;8269;50.990;4.494;2023-03-05T06:57:47;15.97;;;9.40;;
16320;SDS011;8269;50.990;4.494;2023-03-05T07:00:13;13.23;;;9.87;;
16320;SDS011;8269;50.990;4.494;2023-03-05T07:02:40;14.37;;;9.60;;
16320;SDS011;8269;50.990;4.494;2023-03-05T07:05:06;15.93;;;9.70;;
16320;SDS011;8269;50.990;4.494;2023-03-05T07:07:32;12.80;;;8.83;;
16320;SDS011;8269;50.990;4.494;2023-03-05T07:09:58;11.13;;;8.30;;
16320;SDS011;8269;50.990;4.494;2023-03-05T07:12:25;14.00;;;8.93;;
16320;SDS011;8269;50.990;4.494;2023-03-05T07:14:51;13.37;;;8.83;;
16320;SDS011;8269;50.990;4.494;2023-03-05T07:17:17;14.03;;;8.30;;
16320;SDS011;8269;50.990;4.494;2023-03-05T07:19:43;14.00;;;8.50;;
16320;SDS011;8269;50.990;4.494;2023-03-05T07:22:09;9.43;;;7.30;;
16320;SDS011;8269;50.990;4.494;2023-03-05T07:24:35;12.93;;;8.00;;
16320;SDS011;8269;50.990;4.494;2023-03-05T07:27:01;12.93;;;7.90;;
16320;SDS011;8269;50.990;4.494;2023-03-05T07:29:27;10.87;;;8.20;;
16320;SDS011;8269;50.990;4.494;2023-03-05T07:31:53;11.60;;;7.47;;
16320;SDS011;8269;50.990;4.494;2023-03-05T07:34:20;10.67;;;7.17;;
16320;SDS011;8269;50.990;4.494;2023-03-05T07:36:50;11.27;;;7.07;;
16320;SDS011;8269;50.990;4.494;2023-03-05T07:39:16;10.37;;;6.30;;
16320;SDS011;8269;50.990;4.494;2023-03-05T07:41:43;13.33;;;6.53;;
16320;SDS011;8269;50.990;4.494;2023-03-05T07:44:09;10.97;;;6.67;;
16320;SDS011;8269;50.990;4.494;2023-03-05T07:46:35;9.30;;;6.50;;
16320;SDS011;8269;50.990;4.494;2023-03-05T07:49:02;10.63;;;6.97;;
16320;SDS011;8269;50.990;4.494;2023-03-05T07:51:28;14.50;;;7.23;;
16320;SDS011;8269;50.990;4.494;2023-03-05T07:53:54;13.53;;;7.20;;
16320;SDS011;8269;50.990;4.494;2023-03-05T07:56:28;12.13;;;6.63;;
16320;SDS011;8269;50.990;4.494;2023-03-05T07:58:59;8.47;;;5.77;;
16320;SDS011;8269;50.990;4.494;2023-03-05T08:01:27;11.23;;;6.33;;
16320;SDS011;8269;50.990;4.494;2023-03-05T08:03:53;8.53;;;6.13;;
16320;SDS011;8269;50.990;4.494;2023-03-05T08:06:19;9.83;;;6.17;;
16320;SDS011;8269;50.990;4.494;2023-03-05T08:08:45;9.07;;;5.20;;
16320;SDS011;8269;50.990;4.494;2023-03-05T08:11:12;9.87;;;6.10;;
16320;SDS011;8269;50.990;4.494;2023-03-05T08:13:39;8.27;;;5.40;;
16320;SDS011;8269;50.990;4.494;2023-03-05T08:16:07;9.43;;;6.07;;
16320;SDS011;8269;50.990;4.494;2023-03-05T08:18:33;8.13;;;5.53;;
16320;SDS011;8269;50.990;4.494;2023-03-05T08:21:00;9.73;;;5.67;;
16320;SDS011;8269;50.990;4.494;2023-03-05T08:23:27;10.67;;;5.90;;
16320;SDS011;8269;50.990;4.494;2023-03-05T08:25:53;11.90;;;5.60;;
16320;SDS011;8269;50.990;4.494;2023-03-05T08:28:19;8.50;;;5.40;;
16320;SDS011;8269;50.990;4.494;2023-03-05T08:30:45;8.37;;;5.07;;
16320;SDS011;8269;50.990;4.494;2023-03-05T08:33:12;7.23;;;4.80;;
16320;SDS011;8269;50.990;4.494;2023-03-05T08:35:38;7.90;;;5.50;;
16320;SDS011;8269;50.990;4.494;2023-03-05T08:38:04;8.10;;;5.47;;
16320;SDS011;8269;50.990;4.494;2023-03-05T08:40:31;8.93;;;6.17;;
16320;SDS011;8269;50.990;4.494;2023-03-05T08:42:57;8.73;;;6.20;;
16320;SDS011;8269;50.990;4.494;2023-03-05T08:45:26;9.70;;;6.03;;
16320;SDS011;8269;50.990;4.494;2023-03-05T08:47:56;9.00;;;6.43;;
16320;SDS011;8269;50.990;4.494;2023-03-05T08:50:22;9.67;;;6.27;;
16320;SDS011;8269;50.990;4.494;2023-03-05T08:52:49;9.53;;;6.10;;
16320;SDS011;8269;50.990;4.494;2023-03-05T08:55:16;8.33;;;5.73;;
16320;SDS011;8269;50.990;4.494;2023-03-05T08:57:42;8.87;;;6.17;;
16320;SDS011;8269;50.990;4.494;2023-03-05T09:00:08;7.83;;;5.10;;
16320;SDS011;8269;50.990;4.494;2023-03-05T09:02:36;7.23;;;5.27;;
16320;SDS011;8269;50.990;4.494;2023-03-05T09:05:02;9.43;;;5.87;;
16320;SDS011;8269;50.990;4.494;2023-03-05T09:07:28;8.23;;;6.27;;
16320;SDS011;8269;50.990;4.494;2023-03-05T09:09:54;12.07;;;9.27;;
16320;SDS011;8269;50.990;4.494;2023-03-05T09:12:20;9.23;;;6.73;;
16320;SDS011;8269;50.990;4.494;2023-03-05T09:14:46;12.03;;;8.40;;
16320;SDS011;8269;50.990;4.494;2023-03-05T09:17:13;11.53;;;8.57;;
16320;SDS011;8269;50.990;4.494;2023-03-05T09:19:39;13.63;;;9.63;;
16320;SDS011;8269;50.990;4.494;2023-03-05T09:22:05;11.00;;;8.70;;
16320;SDS011;8269;50.990;4.494;2023-03-05T09:24:32;10.57;;;8.70;;
16320;SDS011;8269;50.990;4.494;2023-03-05T09:26:58;11.83;;;8.90;;
16320;SDS011;8269;50.990;4.494;2023-03-05T09:29:25;12.37;;;9.03;;
16320;SDS011;8269;50.990;4.494;2023-03-05T09:31:51;10.17;;;8.27;;
16320;SDS011;8269;50.990;4.494;2023-03-05T09:34:18;11.70;;;7.93;;
16320;SDS011;8269;50.990;4.494;2023-03-05T09:36:44;9.50;;;7.57;;
16320;SDS011;8269;50.990;4.494;2023-03-05T09:39:10;9.87;;;8.27;;
16320;SDS011;8269;50.990;4.494;2023-03-05T09:52:25;6.23;;;3.97;;
16320;SDS011;8269;50.990;4.494;2023-03-05T09:54:56;6.23;;;4.07;;
16320;SDS011;8269;50.990;4.494;2023-03-05T09:57:35;5.93;;;3.13;;
16320;SDS011;8269;50.990;4.494;2023-03-05T10:00:06;4.93;;;3.30;;
16320;SDS011;8269;50.990;4.494;2023-03-05T10:02:34;4.33;;;3.03;;
16320;SDS011;8269;50.990;4.494;2023-03-05T10:05:21;5.07;;;3.50;;
16320;SDS011;8269;50.990;4.494;2023-03-05T10:07:54;5.07;;;3.60;;
16320;SDS011;8269;50.990;4.494;2023-03-05T10:10:25;5.60;;;3.40;;
16320;SDS011;8269;50.990;4.494;2023-03-05T10:12:54;5.13;;;3.30;;
16320;SDS011;8269;50.990;4.494;2023-03-05T10:15:31;7.20;;;4.60;;
16320;SDS011;8269;50.990;4.494;2023-03-05T10:20:48;4.77;;;2.90;;
16320;SDS011;8269;50.990;4.494;2023-03-05T10:26:03;5.83;;;2.90;;
16320;SDS011;8269;50.990;4.494;2023-03-05T10:31:19;4.50;;;2.80;;
16320;SDS011;8269;50.990;4.494;2023-03-05T10:46:56;5.53;;;2.50;;
16320;SDS011;8269;50.990;4.494;2023-03-05T10:49:27;4.67;;;2.40;;
16320;SDS011;8269;50.990;4.494;2023-03-05T10:52:17;4.70;;;2.00;;
16320;SDS011;8269;50.990;4.494;2023-03-05T10:54:41;2.80;;;1.67;;
16320;SDS011;8269;50.990;4.494;2023-03-05T10:59:36;3.30;;;1.50;;
16320;SDS011;8269;50.990;4.494;2023-03-05T11:02:05;2.53;;;1.30;;
16320;SDS011;8269;50.990;4.494;2023-03-05T11:04:33;4.07;;;1.50;;
16320;SDS011;8269;50.990;4.494;2023-03-05T11:07:04;3.17;;;1.40;;
16320;SDS011;8269;50.990;4.494;2023-03-05T11:09:30;1.90;;;1.20;;
16320;SDS011;8269;50.990;4.494;2023-03-05T11:14:30;1.53;;;1.13;;
16320;SDS011;8269;50.990;4.494;2023-03-05T11:16:58;3.50;;;1.30;;
16320;SDS011;8269;50.990;4.494;2023-03-05T11:19:25;2.10;;;1.00;;
16320;SDS011;8269;50.990;4.494;2023-03-05T11:25:03;2.10;;;1.10;;
16320;SDS011;8269;50.990;4.494;2023-03-05T11:27:32;2.60;;;1.03;;
16320;SDS011;8269;50.990;4.494;2023-03-05T11:30:00;3.20;;;1.10;;
16320;SDS011;8269;50.990;4.494;2023-03-05T11:32:27;2.80;;;1.57;;
16320;SDS011;8269;50.990;4.494;2023-03-05T11:34:53;2.87;;;1.30;;
16320;SDS011;8269;50.990;4.494;2023-03-05T11:37:25;2.90;;;1.30;;
16320;SDS011;8269;50.990;4.494;2023-03-05T11:40:33;4.23;;;1.50;;
16320;SDS011;8269;50.990;4.494;2023-03-05T11:42:40;3.13;;;1.57;;
16320;SDS011;8269;50.990;4.494;2023-03-05T11:45:12;2.10;;;1.47;;
16320;SDS011;8269;50.990;4.494;2023-03-05T11:47:47;2.57;;;1.67;;
16320;SDS011;8269;50.990;4.494;2023-03-05T11:55:19;5.83;;;2.47;;
16320;SDS011;8269;50.990;4.494;2023-03-05T12:00:19;4.53;;;2.00;;
16320;SDS011;8269;50.990;4.494;2023-03-05T12:02:47;4.10;;;1.90;;
16320;SDS011;8269;50.990;4.494;2023-03-05T12:05:16;5.37;;;2.50;;
16320;SDS011;8269;50.990;4.494;2023-03-05T12:07:43;3.87;;;2.00;;
16320;SDS011;8269;50.990;4.494;2023-03-05T12:10:21;5.17;;;1.93;;
16320;SDS011;8269;50.990;4.494;2023-03-05T12:15:24;3.40;;;1.93;;
16320;SDS011;8269;50.990;4.494;2023-03-05T12:23:14;4.67;;;2.63;;
16320;SDS011;8269;50.990;4.494;2023-03-05T12:25:51;5.70;;;2.80;;
16320;SDS011;8269;50.990;4.494;2023-03-05T12:31:04;4.57;;;2.70;;
16320;SDS011;8269;50.990;4.494;2023-03-05T12:33:32;5.87;;;3.50;;
16320;SDS011;8269;50.990;4.494;2023-03-05T12:38:40;10.00;;;5.67;;
16320;SDS011;8269;50.990;4.494;2023-03-05T12:51:43;6.73;;;3.57;;
16320;SDS011;8269;50.990;4.494;2023-03-05T12:56:55;7.13;;;4.20;;
16320;SDS011;8269;50.990;4.494;2023-03-05T12:59:22;4.70;;;3.10;;
16320;SDS011;8269;50.990;4.494;2023-03-05T13:01:51;5.73;;;4.43;;
16320;SDS011;8269;50.990;4.494;2023-03-05T13:04:22;8.10;;;3.00;;
16320;SDS011;8269;50.990;4.494;2023-03-05T13:07:02;4.27;;;2.20;;
16320;SDS011;8269;50.990;4.494;2023-03-05T13:09:29;2.70;;;1.70;;
16320;SDS011;8269;50.990;4.494;2023-03-05T13:11:57;2.57;;;1.60;;
16320;SDS011;8269;50.990;4.494;2023-03-05T13:16:49;5.80;;;2.20;;
16320;SDS011;8269;50.990;4.494;2023-03-05T13:19:15;4.00;;;2.70;;
16320;SDS011;8269;50.990;4.494;2023-03-05T13:21:42;4.97;;;2.80;;
16320;SDS011;8269;50.990;4.494;2023-03-05T13:24:14;3.07;;;2.20;;
16320;SDS011;8269;50.990;4.494;2023-03-05T13:26:40;5.00;;;2.40;;
16320;SDS011;8269;50.990;4.494;2023-03-05T13:31:39;4.03;;;1.70;;
16320;SDS011;8269;50.990;4.494;2023-03-05T13:34:17;3.73;;;1.70;;
16320;SDS011;8269;50.990;4.494;2023-03-05T13:37:26;4.23;;;1.80;;
16320;SDS011;8269;50.990;4.494;2023-03-05T13:39:34;4.60;;;1.80;;
16320;SDS011;8269;50.990;4.494;2023-03-05T13:42:03;4.53;;;2.13;;
16320;SDS011;8269;50.990;4.494;2023-03-05T13:44:31;4.10;;;2.17;;
16320;SDS011;8269;50.990;4.494;2023-03-05T13:47:07;4.50;;;2.30;;
16320;SDS011;8269;50.990;4.494;2023-03-05T13:49:33;4.20;;;2.07;;
16320;SDS011;8269;50.990;4.494;2023-03-05T13:51:59;4.93;;;2.30;;
16320;SDS011;8269;50.990;4.494;2023-03-05T13:54:27;4.20;;;2.17;;
16320;SDS011;8269;50.990;4.494;2023-03-05T13:56:54;4.43;;;2.20;;
16320;SDS011;8269;50.990;4.494;2023-03-05T13:59:23;6.00;;;2.40;;
16320;SDS011;8269;50.990;4.494;2023-03-05T14:01:50;10.67;;;2.80;;
16320;SDS011;8269;50.990;4.494;2023-03-05T14:04:21;6.07;;;3.07;;
16320;SDS011;8269;50.990;4.494;2023-03-05T14:06:56;6.30;;;3.77;;
16320;SDS011;8269;50.990;4.494;2023-03-05T14:09:30;4.70;;;2.93;;
16320;SDS011;8269;50.990;4.494;2023-03-05T14:12:01;5.50;;;3.80;;
16320;SDS011;8269;50.990;4.494;2023-03-05T14:14:28;7.67;;;4.03;;
16320;SDS011;8269;50.990;4.494;2023-03-05T14:17:14;9.67;;;5.60;;
16320;SDS011;8269;50.990;4.494;2023-03-05T14:19:41;7.37;;;4.87;;
16320;SDS011;8269;50.990;4.494;2023-03-05T14:22:26;8.27;;;5.10;;
16320;SDS011;8269;50.990;4.494;2023-03-05T14:24:52;7.70;;;5.43;;
16320;SDS011;8269;50.990;4.494;2023-03-05T14:27:18;9.30;;;5.87;;
16320;SDS011;8269;50.990;4.494;2023-03-05T14:29:46;8.23;;;5.20;;
16320;SDS011;8269;50.990;4.494;2023-03-05T14:32:27;8.13;;;5.13;;
16320;SDS011;8269;50.990;4.494;2023-03-05T14:34:56;10.07;;;6.30;;
16320;SDS011;8269;50.990;4.494;2023-03-05T14:37:24;9.40;;;5.93;;
16320;SDS011;8269;50.990;4.494;2023-03-05T14:39:53;9.60;;;6.50;;
16320;SDS011;8269;50.990;4.494;2023-03-05T14:44:56;9.73;;;6.83;;
16320;SDS011;8269;50.990;4.494;2023-03-05T14:47:23;8.73;;;5.90;;
16320;SDS011;8269;50.990;4.494;2023-03-05T14:49:49;8.90;;;5.23;;
16320;SDS011;8269;50.990;4.494;2023-03-05T14:52:18;8.07;;;5.17;;
16320;SDS011;8269;50.990;4.494;2023-03-05T14:54:45;7.33;;;4.97;;
16320;SDS011;8269;50.990;4.494;2023-03-05T14:57:16;7.23;;;4.10;;
16320;SDS011;8269;50.990;4.494;2023-03-05T14:59:43;5.10;;;3.03;;
16320;SDS011;8269;50.990;4.494;2023-03-05T15:02:16;5.60;;;3.33;;
16320;SDS011;8269;50.990;4.494;2023-03-05T15:04:42;6.23;;;4.20;;
16320;SDS011;8269;50.990;4.494;2023-03-05T15:07:14;7.30;;;3.07;;
16320;SDS011;8269;50.990;4.494;2023-03-05T15:09:41;5.90;;;2.93;;
16320;SDS011;8269;50.990;4.494;2023-03-05T15:12:08;5.37;;;3.10;;
16320;SDS011;8269;50.990;4.494;2023-03-05T15:14:35;7.03;;;2.70;;
16320;SDS011;8269;50.990;4.494;2023-03-05T15:17:01;5.77;;;2.93;;
16320;SDS011;8269;50.990;4.494;2023-03-05T15:19:27;4.93;;;2.90;;
16320;SDS011;8269;50.990;4.494;2023-03-05T15:21:53;4.07;;;2.67;;
16320;SDS011;8269;50.990;4.494;2023-03-05T15:24:19;3.90;;;2.30;;
16320;SDS011;8269;50.990;4.494;2023-03-05T15:26:45;5.87;;;2.93;;
16320;SDS011;8269;50.990;4.494;2023-03-05T15:29:11;5.57;;;2.90;;
16320;SDS011;8269;50.990;4.494;2023-03-05T15:31:37;4.30;;;2.90;;
16320;SDS011;8269;50.990;4.494;2023-03-05T15:34:04;5.73;;;3.47;;
16320;SDS011;8269;50.990;4.494;2023-03-05T15:36:31;5.77;;;3.20;;
16320;SDS011;8269;50.990;4.494;2023-03-05T15:38:57;7.53;;;3.17;;
16320;SDS011;8269;50.990;4.494;2023-03-05T15:41:23;7.50;;;2.97;;
16320;SDS011;8269;50.990;4.494;2023-03-05T15:43:49;5.33;;;2.63;;
16320;SDS011;8269;50.990;4.494;2023-03-05T15:46:15;3.87;;;2.33;;
16320;SDS011;8269;50.990;4.494;2023-03-05T15:48:42;3.63;;;2.20;;
16320;SDS011;8269;50.990;4.494;2023-03-05T15:51:13;4.83;;;2.23;;
16320;SDS011;8269;50.990;4.494;2023-03-05T15:53:39;3.90;;;1.90;;
16320;SDS011;8269;50.990;4.494;2023-03-05T15:56:06;4.47;;;2.30;;
16320;SDS011;8269;50.990;4.494;2023-03-05T15:58:32;4.20;;;2.10;;
16320;SDS011;8269;50.990;4.494;2023-03-05T16:00:58;4.20;;;2.20;;
16320;SDS011;8269;50.990;4.494;2023-03-05T16:03:24;4.87;;;2.30;;
16320;SDS011;8269;50.990;4.494;2023-03-05T16:05:50;4.40;;;2.40;;
16320;SDS011;8269;50.990;4.494;2023-03-05T16:08:16;4.57;;;2.50;;
16320;SDS011;8269;50.990;4.494;2023-03-05T16:10:42;5.50;;;2.43;;
16320;SDS011;8269;50.990;4.494;2023-03-05T16:13:10;4.13;;;2.07;;
16320;SDS011;8269;50.990;4.494;2023-03-05T16:15:37;4.60;;;1.93;;
16320;SDS011;8269;50.990;4.494;2023-03-05T16:18:05;5.47;;;1.80;;
16320;SDS011;8269;50.990;4.494;2023-03-05T16:20:32;4.63;;;2.00;;
16320;SDS011;8269;50.990;4.494;2023-03-05T16:23:00;4.63;;;1.97;;